This is the latest recevied weather packets stored in our database for station/object HP1COO-13. If no packets are shown the sender has not sent any weather packets the latest 1 day(s).
| Time | Temp. | Humidity | Pressure | Rain* | Wind** | Luminosity | Snow |
|---|---|---|---|---|---|---|---|
| 1778008736 | 27.22° C | 95% | 1007.5 hPa | 2.29 mm | 0.45 m/s, 356° | - | - |
| 1778008103 | 26.67° C | 95% | 1007.7 hPa | 5.59 mm | 0.45 m/s, 25° | - | - |
| 1778007470 | 26.67° C | 96% | 1007.9 hPa | 8.89 mm | 0.45 m/s, 338° | - | - |
| 1778006837 | 26.67° C | 96% | 1007.7 hPa | 10.67 mm | 0.89 m/s, 30° | - | - |
| 1778006204 | 26.67° C | 96% | 1007.9 hPa | 10.67 mm | 0.45 m/s, 328° | - | - |
| 1778005571 | 26.67° C | 96% | 1008.2 hPa | 10.41 mm | 0.45 m/s, 16° | - | - |
| 1778004938 | 27.22° C | 95% | 1008.4 hPa | 6.1 mm | 0.45 m/s, 177° | - | - |
| 1778004305 | 27.22° C | 94% | 1008.4 hPa | 3.56 mm | 0.89 m/s, 156° | - | - |
| 1778003672 | 28.33° C | 92% | 1008.7 hPa | 0.25 mm | 1.34 m/s, 69° | - | - |
| 1778003039 | 28.89° C | 90% | 1008.4 hPa | 0.51 mm | 1.34 m/s, 320° | - | - |
| 1778001773 | 28.33° C | 88% | 1008.7 hPa | 3.56 mm | 0 m/s | - | - |
| 1778001140 | 27.78° C | 93% | 1009.1 hPa | 7.87 mm | 0.45 m/s, 4° | - | - |
| 1778000507 | 27.22° C | 92% | 1009 hPa | 8.13 mm | 0.45 m/s, 9° | - | - |
| 1777999874 | 26.67° C | 95% | 1009.3 hPa | 7.87 mm | 0.45 m/s, 169° | - | - |
| 1777999241 | 26.67° C | 95% | 1009.1 hPa | 7.37 mm | 0.89 m/s, 196° | - | - |
| 1777998608 | 26.67° C | 95% | 1009.3 hPa | 7.11 mm | 0.89 m/s, 148° | - | - |
| 1777997975 | 27.22° C | 91% | 1009.7 hPa | 0.76 mm | 2.24 m/s, 106° | - | - |
| 1777997342 | 29.44° C | 82% | 1009.5 hPa | 0 mm | 3.58 m/s, 99° | - | - |
| 1777996709 | 30.56° C | 79% | 1009.3 hPa | 0 mm | 1.34 m/s, 185° | - | - |
| 1777996076 | 30.56° C | 76% | 1009.2 hPa | 0 mm | 0.89 m/s, 123° | - | - |
| 1777995443 | 31.67° C | 73% | 1009.3 hPa | 0 mm | 1.34 m/s, 110° | - | - |
| 1777994810 | 31.67° C | 72% | 1009.3 hPa | 0 mm | 0.89 m/s, 176° | - | - |
| 1777994177 | 31.67° C | 73% | 1009.6 hPa | 0 mm | 2.24 m/s, 189° | - | - |
| 1777993544 | 30.56° C | 75% | 1009.5 hPa | 0 mm | 0 m/s | - | - |
| 1777992944 | 30.56° C | 76% | 1009.6 hPa | 0 mm | 1.79 m/s, 222° | - | - |
* Rain latest hour (hover to see other rain measurements)
** Current wind speed in m/s (hover to see current wind gust speed)